Time;durP1;ratioP1;P1;durP2;ratioP2;P2;SDS_P1;SDS_P2;PMS_P1;PMS_P2;Temp;Humidity;BMP_temperature;BMP_pressure;BME280_temperature;BME280_humidity;BME280_pressure;Samples;Min_cycle;Max_cycle;Signal;HPM_P1;HPM_P2
2023/11/16 00:02:08;;;;;;;15.93;2.53;;;;;;;;;;5011348;28;20027;-80
2023/11/16 00:04:34;;;;;;;15.70;2.43;;;;;;;;;;5011656;28;20034;-80
2023/11/16 00:07:03;;;;;;;11.67;2.33;;;;;;;;;;5011495;28;20069;-81
2023/11/16 00:09:29;;;;;;;8.50;2.50;;;;;;;;;;5013513;28;20022;-78
2023/11/16 00:11:55;;;;;;;16.20;4.10;;;;;;;;;;5012334;28;20034;-80
2023/11/16 00:14:21;;;;;;;13.40;2.30;;;;;;;;;;5004276;28;20038;-80
2023/11/16 00:16:48;;;;;;;19.77;3.03;;;;;;;;;;5008759;28;20034;-79
2023/11/16 00:19:18;;;;;;;10.20;1.97;;;;;;;;;;5001023;28;20050;-78
2023/11/16 00:21:44;;;;;;;15.50;2.20;;;;;;;;;;4996344;28;20184;-76
2023/11/16 00:24:12;;;;;;;16.60;3.17;;;;;;;;;;5000610;28;21245;-80
2023/11/16 00:26:38;;;;;;;11.43;2.50;;;;;;;;;;4998086;28;20031;-77
2023/11/16 00:29:06;;;;;;;9.93;2.33;;;;;;;;;;4998178;28;20038;-77
2023/11/16 00:31:32;;;;;;;15.90;3.00;;;;;;;;;;4992557;28;20098;-78
2023/11/16 00:33:58;;;;;;;14.03;2.73;;;;;;;;;;5017186;28;20100;-78
2023/11/16 00:36:24;;;;;;;14.00;3.17;;;;;;;;;;4997223;28;20030;-78
2023/11/16 00:38:53;;;;;;;23.70;3.77;;;;;;;;;;5012453;28;20026;-77
2023/11/16 00:41:19;;;;;;;8.73;2.30;;;;;;;;;;4996333;28;20061;-79
2023/11/16 00:43:45;;;;;;;11.73;2.80;;;;;;;;;;4998183;28;20038;-78
2023/11/16 00:46:11;;;;;;;14.50;3.30;;;;;;;;;;4998810;28;20034;-78
2023/11/16 00:48:42;;;;;;;10.73;2.33;;;;;;;;;;5012691;28;20126;-82
2023/11/16 00:51:08;;;;;;;11.10;1.90;;;;;;;;;;5002110;28;20035;-79
2023/11/16 00:53:34;;;;;;;15.27;3.00;;;;;;;;;;5007514;28;20053;-76
2023/11/16 00:56:00;;;;;;;16.53;2.60;;;;;;;;;;4999081;28;20033;-77
2023/11/16 00:58:26;;;;;;;11.47;2.07;;;;;;;;;;5003123;28;20037;-77
2023/11/16 01:00:52;;;;;;;11.00;2.80;;;;;;;;;;5006588;28;20034;-78
2023/11/16 01:03:19;;;;;;;13.70;2.93;;;;;;;;;;5000331;28;20070;-76
2023/11/16 01:05:45;;;;;;;9.73;2.63;;;;;;;;;;4995012;28;20038;-78
2023/11/16 01:08:12;;;;;;;15.20;3.40;;;;;;;;;;5004851;28;20034;-78
2023/11/16 01:10:43;;;;;;;11.33;2.80;;;;;;;;;;5005452;28;20031;-78
2023/11/16 01:13:09;;;;;;;12.33;2.43;;;;;;;;;;5000855;28;20034;-78
2023/11/16 01:15:38;;;;;;;14.97;3.10;;;;;;;;;;5004510;28;20030;-78
2023/11/16 01:18:12;;;;;;;16.37;2.70;;;;;;;;;;5002887;28;20034;-77
2023/11/16 01:20:42;;;;;;;15.40;2.70;;;;;;;;;;5023017;28;20029;-78
2023/11/16 01:23:12;;;;;;;16.13;3.30;;;;;;;;;;5008368;28;20085;-80
2023/11/16 01:25:44;;;;;;;18.17;2.97;;;;;;;;;;5023462;28;20510;-77
2023/11/16 01:28:15;;;;;;;8.57;2.63;;;;;;;;;;5022215;28;20056;-76
2023/11/16 01:30:44;;;;;;;13.67;2.30;;;;;;;;;;5021822;28;20078;-77
2023/11/16 01:33:11;;;;;;;12.77;2.17;;;;;;;;;;5001829;28;20378;-77
2023/11/16 01:35:39;;;;;;;13.30;2.63;;;;;;;;;;5006051;28;20092;-78
2023/11/16 01:38:05;;;;;;;13.47;2.33;;;;;;;;;;5002350;28;20035;-78
2023/11/16 01:40:32;;;;;;;14.60;2.50;;;;;;;;;;5005370;28;20025;-77
2023/11/16 01:42:58;;;;;;;16.80;3.73;;;;;;;;;;5009485;28;20096;-80
2023/11/16 01:45:30;;;;;;;14.63;2.37;;;;;;;;;;5001357;28;20038;-79
2023/11/16 01:48:03;;;;;;;12.80;3.53;;;;;;;;;;5001583;28;20034;-78
2023/11/16 01:50:35;;;;;;;12.77;2.30;;;;;;;;;;5022785;28;20031;-79
2023/11/16 01:53:05;;;;;;;8.25;1.80;;;;;;;;;;5003108;28;20034;-77
2023/11/16 01:55:33;;;;;;;10.70;2.40;;;;;;;;;;5004597;28;20608;-80
2023/11/16 01:58:04;;;;;;;9.97;2.57;;;;;;;;;;5004623;28;20038;-79
2023/11/16 02:00:31;;;;;;;9.63;1.70;;;;;;;;;;5001738;28;20037;-76
2023/11/16 02:03:00;;;;;;;12.80;2.63;;;;;;;;;;5005484;28;20027;-76
2023/11/16 02:05:26;;;;;;;10.93;2.10;;;;;;;;;;5014109;28;20041;-77
2023/11/16 02:07:54;;;;;;;12.10;2.53;;;;;;;;;;5013998;28;20098;-80
2023/11/16 02:10:21;;;;;;;14.10;2.70;;;;;;;;;;5001248;28;20130;-79
2023/11/16 02:12:53;;;;;;;13.43;2.20;;;;;;;;;;5007949;28;20184;-79
2023/11/16 02:15:19;;;;;;;;;;;;;;;;;;5007278;28;20038;-80
2023/11/16 02:17:45;;;;;;;6.97;2.17;;;;;;;;;;5003261;28;19940;-79
2023/11/16 02:20:12;;;;;;;15.93;3.13;;;;;;;;;;5006904;28;20042;-80
2023/11/16 02:22:41;;;;;;;17.37;2.07;;;;;;;;;;5010413;28;20034;-78
2023/11/16 02:25:08;;;;;;;15.60;2.73;;;;;;;;;;5002633;28;20034;-78
2023/11/16 02:27:35;;;;;;;13.07;1.93;;;;;;;;;;5001388;28;20030;-78
2023/11/16 02:30:04;;;;;;;9.73;2.83;;;;;;;;;;5006468;28;20026;-78
2023/11/16 02:32:30;;;;;;;8.23;2.60;;;;;;;;;;5007374;28;20064;-79
2023/11/16 02:34:56;;;;;;;15.80;2.43;;;;;;;;;;4999422;28;20041;-80
2023/11/16 02:37:22;;;;;;;8.67;2.20;;;;;;;;;;4996071;28;20046;-80
2023/11/16 02:39:48;;;;;;;10.97;2.47;;;;;;;;;;5006911;28;20041;-79
2023/11/16 02:42:14;;;;;;;9.77;2.57;;;;;;;;;;4997479;28;20180;-78
2023/11/16 02:44:41;;;;;;;17.40;2.90;;;;;;;;;;4993916;28;20113;-78
2023/11/16 02:47:08;;;;;;;8.00;1.83;;;;;;;;;;4994120;28;20022;-77
2023/11/16 02:49:34;;;;;;;11.93;2.50;;;;;;;;;;4994517;28;20109;-80
2023/11/16 02:52:00;;;;;;;13.13;2.37;;;;;;;;;;5009613;28;20023;-78
2023/11/16 02:54:26;;;;;;;13.20;2.30;;;;;;;;;;4996468;28;20035;-77
2023/11/16 02:56:53;;;;;;;12.00;2.20;;;;;;;;;;4996686;28;20042;-81
2023/11/16 02:59:19;;;;;;;10.70;2.47;;;;;;;;;;4999339;28;20329;-77
2023/11/16 03:01:46;;;;;;;12.30;2.57;;;;;;;;;;4997287;28;20073;-77
2023/11/16 03:04:12;;;;;;;10.80;2.30;;;;;;;;;;4994219;28;20041;-77
2023/11/16 03:06:38;;;;;;;12.70;2.23;;;;;;;;;;4995889;28;20077;-78
2023/11/16 03:09:05;;;;;;;11.43;2.83;;;;;;;;;;5015965;28;20063;-80
2023/11/16 03:11:35;;;;;;;7.00;2.00;;;;;;;;;;4997203;28;20034;-79
2023/11/16 03:14:02;;;;;;;12.93;1.73;;;;;;;;;;5001475;28;20022;-79
2023/11/16 03:16:28;;;;;;;9.03;2.90;;;;;;;;;;4996883;28;20035;-77
2023/11/16 03:18:55;;;;;;;13.43;2.43;;;;;;;;;;5016385;28;20045;-76
2023/11/16 03:21:21;;;;;;;10.80;2.80;;;;;;;;;;4995321;28;20069;-78
2023/11/16 03:23:47;;;;;;;12.37;2.63;;;;;;;;;;5013964;28;20053;-80
2023/11/16 03:26:13;;;;;;;8.17;2.27;;;;;;;;;;5012827;28;20065;-77
2023/11/16 03:28:41;;;;;;;10.20;2.50;;;;;;;;;;4998695;28;20035;-78
2023/11/16 03:31:09;;;;;;;13.90;2.37;;;;;;;;;;4999199;28;20130;-75
2023/11/16 03:33:35;;;;;;;11.53;2.00;;;;;;;;;;5001127;28;20289;-78
2023/11/16 03:36:01;;;;;;;11.33;2.27;;;;;;;;;;4999630;28;20034;-76
2023/11/16 03:38:27;;;;;;;6.53;2.10;;;;;;;;;;4997815;28;20042;-76
2023/11/16 03:40:53;;;;;;;11.47;2.73;;;;;;;;;;5020358;28;20073;-78
2023/11/16 03:43:19;;;;;;;11.10;2.07;;;;;;;;;;5014508;28;20094;-77
2023/11/16 03:45:45;;;;;;;18.07;2.97;;;;;;;;;;4999993;28;20042;-76
2023/11/16 03:48:11;;;;;;;9.47;2.53;;;;;;;;;;4998785;28;20488;-77
2023/11/16 03:50:39;;;;;;;11.27;2.10;;;;;;;;;;5020415;28;20045;-77
2023/11/16 03:53:06;;;;;;;8.57;2.27;;;;;;;;;;4999738;28;20031;-77
2023/11/16 03:55:32;;;;;;;15.50;2.77;;;;;;;;;;5002179;28;20037;-76
2023/11/16 03:57:58;;;;;;;11.27;3.27;;;;;;;;;;4999179;28;20026;-80
2023/11/16 04:00:25;;;;;;;14.57;2.63;;;;;;;;;;5000207;28;20034;-78
2023/11/16 04:02:52;;;;;;;15.20;2.07;;;;;;;;;;4998405;28;20035;-79
2023/11/16 04:05:18;;;;;;;11.90;2.03;;;;;;;;;;5021126;28;20033;-77
2023/11/16 04:07:44;;;;;;;12.90;2.67;;;;;;;;;;4998989;28;20041;-78
2023/11/16 04:10:12;;;;;;;17.17;3.17;;;;;;;;;;5000760;28;20026;-77
2023/11/16 04:12:40;;;;;;;11.70;2.37;;;;;;;;;;5021510;28;20033;-77
2023/11/16 04:15:08;;;;;;;12.93;2.43;;;;;;;;;;4995803;28;20133;-78
2023/11/16 04:17:34;;;;;;;12.37;2.37;;;;;;;;;;4995848;28;20041;-77
2023/11/16 04:20:01;;;;;;;10.80;2.30;;;;;;;;;;4999493;28;20065;-78
2023/11/16 04:22:28;;;;;;;9.07;1.80;;;;;;;;;;5013450;28;20037;-76
2023/11/16 04:24:56;;;;;;;13.37;3.60;;;;;;;;;;4998079;28;20115;-77
2023/11/16 04:27:26;;;;;;;9.07;2.97;;;;;;;;;;4999656;28;20038;-79
2023/11/16 04:29:52;;;;;;;8.70;2.07;;;;;;;;;;5016783;28;20062;-78
2023/11/16 04:32:18;;;;;;;9.13;2.47;;;;;;;;;;5017666;28;20030;-79
2023/11/16 04:34:44;;;;;;;9.70;1.50;;;;;;;;;;5014005;28;20056;-76
2023/11/16 04:37:10;;;;;;;9.70;2.07;;;;;;;;;;4997665;28;20038;-79
2023/11/16 04:39:37;;;;;;;8.63;1.97;;;;;;;;;;4996811;28;20065;-77
2023/11/16 04:42:03;;;;;;;10.27;1.83;;;;;;;;;;4994659;28;20037;-79
2023/11/16 04:44:34;;;;;;;9.10;1.90;;;;;;;;;;5001113;28;20146;-80
2023/11/16 04:47:00;;;;;;;12.50;2.03;;;;;;;;;;5010605;28;20312;-79
2023/11/16 04:49:26;;;;;;;7.30;2.27;;;;;;;;;;5010763;28;20057;-78
2023/11/16 04:51:53;;;;;;;5.80;1.93;;;;;;;;;;5006205;28;20050;-80
2023/11/16 04:54:19;;;;;;;7.70;2.43;;;;;;;;;;5010852;28;20053;-80
2023/11/16 04:56:45;;;;;;;4.80;2.10;;;;;;;;;;5008770;28;20034;-79
2023/11/16 04:59:11;;;;;;;14.37;2.30;;;;;;;;;;5004471;28;20073;-80
2023/11/16 05:01:37;;;;;;;10.77;1.80;;;;;;;;;;5010619;28;20072;-79
2023/11/16 05:04:04;;;;;;;13.07;3.00;;;;;;;;;;5008527;28;20454;-81
2023/11/16 05:06:30;;;;;;;13.40;2.53;;;;;;;;;;5009443;28;20038;-78
2023/11/16 05:08:56;;;;;;;15.83;4.00;;;;;;;;;;5009441;28;20030;-80
2023/11/16 05:11:23;;;;;;;13.30;2.53;;;;;;;;;;5009195;28;20065;-78
2023/11/16 05:13:49;;;;;;;9.03;2.47;;;;;;;;;;5003561;28;20026;-80
2023/11/16 05:16:16;;;;;;;17.50;2.33;;;;;;;;;;5007481;28;20033;-79
2023/11/16 05:18:43;;;;;;;13.20;3.70;;;;;;;;;;5003293;28;20066;-78
2023/11/16 05:21:09;;;;;;;11.10;2.60;;;;;;;;;;5008522;28;20057;-79
2023/11/16 05:23:35;;;;;;;5.97;1.90;;;;;;;;;;5005598;28;20086;-79
2023/11/16 05:26:02;;;;;;;13.37;2.90;;;;;;;;;;4996783;28;20030;-81
2023/11/16 05:28:28;;;;;;;8.97;2.13;;;;;;;;;;5024169;28;20038;-80
2023/11/16 05:30:54;;;;;;;12.17;2.53;;;;;;;;;;5007429;28;20614;-80
2023/11/16 05:33:22;;;;;;;9.97;2.93;;;;;;;;;;5008852;28;20458;-80
2023/11/16 05:35:48;;;;;;;10.80;2.63;;;;;;;;;;5009191;28;20093;-80
2023/11/16 05:38:17;;;;;;;9.53;2.00;;;;;;;;;;5009899;28;20094;-78
2023/11/16 05:40:46;;;;;;;9.57;2.60;;;;;;;;;;5009100;28;20097;-79
2023/11/16 05:43:15;;;;;;;10.33;2.67;;;;;;;;;;5002859;28;20023;-81
2023/11/16 05:45:41;;;;;;;9.67;2.13;;;;;;;;;;5019144;28;20117;-79
2023/11/16 05:48:10;;;;;;;6.07;1.93;;;;;;;;;;5015748;28;20057;-81
2023/11/16 05:50:38;;;;;;;23.17;3.03;;;;;;;;;;5008676;28;20022;-80
2023/11/16 05:53:08;;;;;;;7.97;2.50;;;;;;;;;;5002949;28;20086;-80
2023/11/16 05:55:35;;;;;;;12.20;1.80;;;;;;;;;;5009539;28;20443;-77
2023/11/16 05:58:01;;;;;;;14.23;3.00;;;;;;;;;;5013510;28;20090;-82
2023/11/16 06:00:29;;;;;;;15.67;2.53;;;;;;;;;;5006630;28;20034;-82
2023/11/16 06:02:55;;;;;;;10.33;2.03;;;;;;;;;;5013684;28;20037;-79
2023/11/16 06:05:22;;;;;;;7.93;2.50;;;;;;;;;;5007927;28;20038;-79
2023/11/16 06:07:48;;;;;;;15.67;2.73;;;;;;;;;;5010352;28;20023;-79
2023/11/16 06:10:21;;;;;;;15.37;2.70;;;;;;;;;;5011640;28;20018;-79
2023/11/16 06:12:52;;;;;;;11.83;1.90;;;;;;;;;;5012482;28;20049;-79
2023/11/16 06:15:21;;;;;;;8.77;2.63;;;;;;;;;;5001958;28;20055;-81
2023/11/16 06:17:47;;;;;;;11.63;2.10;;;;;;;;;;5008115;28;20034;-79
2023/11/16 06:20:13;;;;;;;11.80;2.47;;;;;;;;;;5000718;28;20026;-76
2023/11/16 06:22:42;;;;;;;16.00;2.77;;;;;;;;;;4999343;28;20034;-76
2023/11/16 06:25:11;;;;;;;9.03;2.43;;;;;;;;;;5015075;28;20145;-77
2023/11/16 06:27:38;;;;;;;8.97;2.43;;;;;;;;;;5004152;28;20065;-75
2023/11/16 06:30:05;;;;;;;15.67;2.27;;;;;;;;;;5022215;28;20065;-77
2023/11/16 06:32:34;;;;;;;11.97;2.80;;;;;;;;;;5001426;28;20033;-76
2023/11/16 06:35:00;;;;;;;13.73;2.77;;;;;;;;;;5003192;28;20114;-78
2023/11/16 06:37:26;;;;;;;8.87;3.37;;;;;;;;;;5002419;28;20034;-76
2023/11/16 06:39:53;;;;;;;6.93;1.63;;;;;;;;;;4997961;28;20034;-75
2023/11/16 06:42:20;;;;;;;7.20;1.80;;;;;;;;;;5003102;28;20093;-77
2023/11/16 06:44:48;;;;;;;7.60;2.40;;;;;;;;;;5020668;28;20108;-76
2023/11/16 06:47:18;;;;;;;8.00;2.27;;;;;;;;;;5007255;28;20037;-79
2023/11/16 06:49:48;;;;;;;11.57;2.23;;;;;;;;;;5008606;28;20022;-79
2023/11/16 06:52:19;;;;;;;10.30;2.13;;;;;;;;;;5009777;28;20045;-76
2023/11/16 06:54:46;;;;;;;7.10;1.70;;;;;;;;;;5005272;28;20117;-76
2023/11/16 06:57:13;;;;;;;9.90;2.33;;;;;;;;;;5008149;28;20038;-78
2023/11/16 06:59:42;;;;;;;11.67;2.87;;;;;;;;;;5010096;28;20093;-78
2023/11/16 07:02:08;;;;;;;8.73;2.07;;;;;;;;;;5005945;28;20042;-77
2023/11/16 07:04:37;;;;;;;9.40;2.27;;;;;;;;;;5006097;28;20034;-77
2023/11/16 07:07:04;;;;;;;6.77;2.17;;;;;;;;;;5023854;28;20097;-76
2023/11/16 07:09:34;;;;;;;9.60;2.00;;;;;;;;;;5024579;28;20030;-79
2023/11/16 07:12:00;;;;;;;9.67;2.17;;;;;;;;;;5004776;28;20181;-77
2023/11/16 07:14:29;;;;;;;9.07;2.27;;;;;;;;;;5006849;28;20026;-79
2023/11/16 07:16:56;;;;;;;6.73;1.90;;;;;;;;;;5009008;28;20037;-78
2023/11/16 07:19:22;;;;;;;12.83;2.63;;;;;;;;;;5006772;28;20362;-77
2023/11/16 07:21:49;;;;;;;9.90;3.43;;;;;;;;;;5005483;28;20040;-79
2023/11/16 07:24:15;;;;;;;10.90;3.53;;;;;;;;;;5007543;28;20661;-79
2023/11/16 07:26:41;;;;;;;12.50;2.97;;;;;;;;;;5024758;28;20047;-77
2023/11/16 07:29:10;;;;;;;9.37;2.83;;;;;;;;;;5005049;28;20017;-75
2023/11/16 07:31:37;;;;;;;10.30;2.67;;;;;;;;;;5009846;28;20034;-77
2023/11/16 07:34:03;;;;;;;19.80;2.83;;;;;;;;;;5028426;28;20039;-79
2023/11/16 07:36:31;;;;;;;9.73;2.20;;;;;;;;;;5007107;28;20031;-77
2023/11/16 07:39:00;;;;;;;8.43;2.77;;;;;;;;;;5016087;28;20039;-76
2023/11/16 07:41:28;;;;;;;12.30;3.43;;;;;;;;;;5018308;28;20058;-77
2023/11/16 07:43:56;;;;;;;12.30;3.17;;;;;;;;;;5016865;28;20094;-76
2023/11/16 07:46:23;;;;;;;14.17;3.30;;;;;;;;;;5014983;28;20022;-76
2023/11/16 07:48:51;;;;;;;10.40;2.60;;;;;;;;;;5033648;28;20034;-75
2023/11/16 07:51:19;;;;;;;14.77;3.23;;;;;;;;;;5032350;28;20027;-76
2023/11/16 07:53:51;;;;;;;13.80;3.87;;;;;;;;;;5015311;28;20026;-75
2023/11/16 07:56:25;;;;;;;7.80;3.00;;;;;;;;;;5016910;28;20053;-76
2023/11/16 07:58:52;;;;;;;12.27;2.57;;;;;;;;;;5014333;28;20053;-76
2023/11/16 08:01:40;;;;;;;13.30;2.80;;;;;;;;;;5018938;28;20030;-77
2023/11/16 08:04:06;;;;;;;11.50;2.63;;;;;;;;;;5020556;28;20105;-77
2023/11/16 08:06:37;;;;;;;11.13;2.47;;;;;;;;;;5011373;28;20030;-76
2023/11/16 08:09:09;;;;;;;7.57;2.27;;;;;;;;;;5015733;28;20081;-74
2023/11/16 08:11:36;;;;;;;16.10;2.85;;;;;;;;;;5008840;28;20049;-78
2023/11/16 08:14:06;;;;;;;5.93;2.07;;;;;;;;;;5017546;28;20026;-78
2023/11/16 08:16:40;;;;;;;8.50;2.20;;;;;;;;;;5018634;28;20026;-77
2023/11/16 08:19:11;;;;;;;13.13;2.83;;;;;;;;;;5017810;28;20589;-77
2023/11/16 08:22:00;;;;;;;11.23;2.60;;;;;;;;;;5016613;28;20023;-76
2023/11/16 08:24:30;;;;;;;19.70;3.83;;;;;;;;;;5016419;28;20019;-77
2023/11/16 08:26:58;;;;;;;9.90;2.40;;;;;;;;;;5018127;28;20030;-75
2023/11/16 08:29:25;;;;;;;10.43;3.07;;;;;;;;;;5022587;28;20081;-76
2023/11/16 08:31:56;;;;;;;10.13;3.17;;;;;;;;;;5034656;28;20042;-77
2023/11/16 08:34:27;;;;;;;5.83;2.33;;;;;;;;;;5019929;28;20011;-75
2023/11/16 08:36:53;;;;;;;9.50;2.73;;;;;;;;;;5022194;28;20031;-76
2023/11/16 08:39:19;;;;;;;9.07;2.93;;;;;;;;;;5017692;28;20027;-76
2023/11/16 08:41:46;;;;;;;11.17;2.90;;;;;;;;;;5015576;28;20049;-76
2023/11/16 08:44:16;;;;;;;19.33;3.40;;;;;;;;;;5007847;28;20030;-78
2023/11/16 08:46:52;;;;;;;17.20;3.67;;;;;;;;;;5022268;28;20085;-75
2023/11/16 08:49:36;;;;;;;11.77;2.80;;;;;;;;;;5026911;28;20022;-76
2023/11/16 08:52:02;;;;;;;21.90;3.30;;;;;;;;;;5029871;28;20111;-76
2023/11/16 08:54:30;;;;;;;11.90;2.93;;;;;;;;;;5024571;28;20022;-75
2023/11/16 08:57:00;;;;;;;9.43;2.43;;;;;;;;;;5026848;28;20011;-76
2023/11/16 08:59:28;;;;;;;14.93;3.77;;;;;;;;;;5009891;28;20034;-78
2023/11/16 09:02:02;;;;;;;14.77;3.20;;;;;;;;;;5010083;28;20074;-77
2023/11/16 09:04:28;;;;;;;10.47;2.80;;;;;;;;;;4974375;28;20027;-75
2023/11/16 09:06:54;;;;;;;8.30;2.13;;;;;;;;;;4972323;28;20055;-78
2023/11/16 09:09:36;;;;;;;7.13;2.00;;;;;;;;;;4974757;28;20011;-77
2023/11/16 09:12:05;;;;;;;8.30;3.20;;;;;;;;;;4974857;28;20102;-77
2023/11/16 09:14:37;;;;;;;14.43;2.33;;;;;;;;;;4958536;28;20082;-77
2023/11/16 09:17:03;;;;;;;6.87;2.23;;;;;;;;;;4973969;28;20119;-76
2023/11/16 09:19:31;;;;;;;11.43;2.23;;;;;;;;;;4974492;28;20901;-77
2023/11/16 09:22:02;;;;;;;14.33;4.03;;;;;;;;;;4974521;28;20020;-75
2023/11/16 09:24:31;;;;;;;11.90;3.40;;;;;;;;;;4973266;28;20034;-76
2023/11/16 09:26:59;;;;;;;14.37;3.93;;;;;;;;;;4955786;28;20043;-77
2023/11/16 09:29:28;;;;;;;7.57;3.20;;;;;;;;;;4990982;28;20030;-77
2023/11/16 09:31:54;;;;;;;9.20;3.10;;;;;;;;;;5009226;28;20049;-77
2023/11/16 09:34:21;;;;;;;19.53;9.80;;;;;;;;;;5007162;28;20023;-76
2023/11/16 09:36:50;;;;;;;17.83;6.83;;;;;;;;;;5009538;28;20101;-75
2023/11/16 09:39:16;;;;;;;13.67;5.63;;;;;;;;;;5025371;28;20019;-77
2023/11/16 09:41:51;;;;;;;14.50;5.10;;;;;;;;;;5028234;28;20053;-75
2023/11/16 09:44:18;;;;;;;12.77;4.43;;;;;;;;;;5012669;28;20054;-77
2023/11/16 09:46:52;;;;;;;15.20;5.23;;;;;;;;;;5025564;28;20046;-78
2023/11/16 09:49:19;;;;;;;18.33;5.07;;;;;;;;;;5027080;28;20136;-75
2023/11/16 09:51:51;;;;;;;18.17;5.63;;;;;;;;;;5011949;28;20026;-76
2023/11/16 09:54:21;;;;;;;14.30;4.33;;;;;;;;;;5010948;28;20017;-75
2023/11/16 09:56:54;;;;;;;13.17;3.90;;;;;;;;;;5026441;28;20026;-75
2023/11/16 09:59:34;;;;;;;14.87;4.77;;;;;;;;;;5004407;28;20196;-76
2023/11/16 10:02:09;;;;;;;14.13;4.27;;;;;;;;;;5024932;28;20051;-78
2023/11/16 10:04:41;;;;;;;11.13;3.93;;;;;;;;;;5027606;28;20022;-76
2023/11/16 10:07:12;;;;;;;12.80;3.97;;;;;;;;;;5010618;28;20038;-75
2023/11/16 10:09:41;;;;;;;13.70;3.57;;;;;;;;;;5027549;28;20101;-75
2023/11/16 10:12:08;;;;;;;9.40;3.67;;;;;;;;;;5007826;28;20061;-77
2023/11/16 10:14:42;;;;;;;9.23;4.17;;;;;;;;;;5006163;28;20015;-76
2023/11/16 10:17:10;;;;;;;13.00;3.77;;;;;;;;;;5022622;28;20038;-77
2023/11/16 10:19:37;;;;;;;11.60;3.60;;;;;;;;;;5005198;28;20023;-76
2023/11/16 10:22:03;;;;;;;14.60;3.30;;;;;;;;;;5005519;28;20035;-75
2023/11/16 10:24:39;;;;;;;15.60;3.70;;;;;;;;;;5006959;28;20030;-77
2023/11/16 10:27:06;;;;;;;12.57;3.30;;;;;;;;;;5004174;28;20027;-76
2023/11/16 10:29:35;;;;;;;17.33;3.00;;;;;;;;;;5008380;28;20039;-76
2023/11/16 10:32:04;;;;;;;10.23;3.10;;;;;;;;;;5006024;28;20033;-77
2023/11/16 10:34:30;;;;;;;11.97;3.90;;;;;;;;;;5005681;28;20026;-75
2023/11/16 10:36:57;;;;;;;12.43;3.57;;;;;;;;;;5008884;28;20026;-76
2023/11/16 10:39:29;;;;;;;9.40;3.70;;;;;;;;;;5012205;28;20038;-76
2023/11/16 10:41:58;;;;;;;8.07;3.80;;;;;;;;;;5013854;28;20099;-80
2023/11/16 10:44:27;;;;;;;9.03;3.03;;;;;;;;;;5018349;28;20010;-80
2023/11/16 10:46:54;;;;;;;10.67;3.67;;;;;;;;;;5018282;28;20046;-77
2023/11/16 10:49:21;;;;;;;9.50;3.27;;;;;;;;;;5012099;28;20037;-84
2023/11/16 10:51:53;;;;;;;10.47;3.47;;;;;;;;;;5017679;28;20017;-77
2023/11/16 10:54:21;;;;;;;11.37;3.43;;;;;;;;;;5017914;28;20083;-80
2023/11/16 10:56:52;;;;;;;10.83;3.70;;;;;;;;;;5013990;28;20025;-77
2023/11/16 10:59:21;;;;;;;8.93;3.87;;;;;;;;;;5014642;28;20038;-82
2023/11/16 11:01:47;;;;;;;14.53;4.30;;;;;;;;;;5017174;28;20041;-79
2023/11/16 11:04:15;;;;;;;12.30;3.83;;;;;;;;;;5016808;28;20003;-76
2023/11/16 11:06:41;;;;;;;11.10;3.60;;;;;;;;;;5018395;28;20039;-83
2023/11/16 11:09:09;;;;;;;11.20;3.63;;;;;;;;;;5017993;28;20114;-76
2023/11/16 11:11:42;;;;;;;9.47;3.40;;;;;;;;;;5018490;28;20030;-83
2023/11/16 11:14:10;;;;;;;11.60;3.47;;;;;;;;;;5018088;28;20025;-78
2023/11/16 11:16:39;;;;;;;12.60;3.40;;;;;;;;;;5018306;28;20030;-78
2023/11/16 11:19:07;;;;;;;13.23;3.73;;;;;;;;;;5016534;28;20011;-77
2023/11/16 11:21:35;;;;;;;18.00;3.50;;;;;;;;;;5017933;28;20038;-79
2023/11/16 11:24:04;;;;;;;12.93;3.87;;;;;;;;;;5018142;28;20046;-77
2023/11/16 11:26:57;;;;;;;13.10;3.57;;;;;;;;;;5016589;28;20101;-82
2023/11/16 11:29:25;;;;;;;12.77;3.72;;;;;;;;;;4995883;28;20055;-77
2023/11/16 11:32:13;;;;;;;11.37;4.20;;;;;;;;;;5013669;28;20045;-82
2023/11/16 11:34:39;;;;;;;13.23;3.77;;;;;;;;;;5013591;28;20030;-80
2023/11/16 11:37:10;;;;;;;10.17;3.00;;;;;;;;;;5014696;28;20034;-80
2023/11/16 11:39:46;;;;;;;9.53;3.37;;;;;;;;;;5015409;28;20199;-76
2023/11/16 11:42:18;;;;;;;10.70;3.43;;;;;;;;;;5022576;28;20007;-80
2023/11/16 11:44:51;;;;;;;7.77;3.17;;;;;;;;;;5014799;28;20110;-79
2023/11/16 11:47:20;;;;;;;10.73;2.57;;;;;;;;;;5015581;28;20033;-79
2023/11/16 11:49:48;;;;;;;9.97;3.10;;;;;;;;;;5017820;28;20042;-82
2023/11/16 11:52:16;;;;;;;9.33;3.70;;;;;;;;;;5019703;28;20013;-78
2023/11/16 11:54:47;;;;;;;18.50;3.20;;;;;;;;;;5021643;28;20049;-77
2023/11/16 11:57:15;;;;;;;10.10;2.53;;;;;;;;;;5021485;28;20053;-78
2023/11/16 11:59:43;;;;;;;7.07;2.27;;;;;;;;;;5015806;28;20026;-76
2023/11/16 12:02:11;;;;;;;9.43;2.90;;;;;;;;;;5021194;28;20033;-78
2023/11/16 12:04:37;;;;;;;11.60;3.43;;;;;;;;;;5010090;28;20015;-82
2023/11/16 12:07:04;;;;;;;10.27;2.97;;;;;;;;;;5021169;28;20035;-77
2023/11/16 12:09:39;;;;;;;9.03;3.20;;;;;;;;;;5018118;28;20176;-78
2023/11/16 12:12:05;;;;;;;10.63;4.03;;;;;;;;;;5021156;28;20036;-82
2023/11/16 12:14:42;;;;;;;14.97;3.17;;;;;;;;;;5019400;28;20311;-78
2023/11/16 12:17:08;;;;;;;11.57;3.10;;;;;;;;;;5028055;28;20118;-79
2023/11/16 12:19:37;;;;;;;8.90;3.43;;;;;;;;;;5013243;28;20046;-78
2023/11/16 12:22:14;;;;;;;14.77;3.30;;;;;;;;;;5013860;28;20034;-76
2023/11/16 12:24:45;;;;;;;16.07;3.33;;;;;;;;;;5008157;28;20038;-76
2023/11/16 12:27:15;;;;;;;18.87;3.67;;;;;;;;;;5008975;28;20037;-78
2023/11/16 12:29:43;;;;;;;10.93;3.57;;;;;;;;;;5026624;28;20027;-76
2023/11/16 12:32:10;;;;;;;15.67;2.47;;;;;;;;;;5028176;28;20035;-77
2023/11/16 12:34:36;;;;;;;11.27;3.57;;;;;;;;;;5015513;28;20099;-77
2023/11/16 12:37:05;;;;;;;11.57;3.37;;;;;;;;;;5024942;28;20053;-77
2023/11/16 12:39:31;;;;;;;17.80;3.30;;;;;;;;;;5029800;28;20025;-77
2023/11/16 12:42:07;;;;;;;9.07;2.97;;;;;;;;;;5010538;28;20030;-77
2023/11/16 12:44:33;;;;;;;11.67;2.90;;;;;;;;;;5030553;28;20094;-77
2023/11/16 12:46:59;;;;;;;13.50;2.60;;;;;;;;;;5013718;28;20030;-77
2023/11/16 12:49:25;;;;;;;11.43;2.20;;;;;;;;;;5009884;28;20042;-76
2023/11/16 12:51:53;;;;;;;16.23;3.63;;;;;;;;;;5010925;28;20024;-75
2023/11/16 12:54:21;;;;;;;8.73;2.90;;;;;;;;;;5018924;28;20033;-76
2023/11/16 12:56:48;;;;;;;10.73;3.40;;;;;;;;;;5013156;28;20019;-75
2023/11/16 12:59:14;;;;;;;16.90;4.20;;;;;;;;;;5016712;28;20034;-76
2023/11/16 13:01:40;;;;;;;8.30;3.07;;;;;;;;;;5014465;28;20085;-75
2023/11/16 13:04:11;;;;;;;7.53;1.93;;;;;;;;;;5018068;28;20027;-76
2023/11/16 13:06:39;;;;;;;13.53;2.67;;;;;;;;;;5019665;28;20050;-75
2023/11/16 13:09:08;;;;;;;8.27;2.90;;;;;;;;;;5022899;28;20025;-76
2023/11/16 13:11:36;;;;;;;8.97;2.30;;;;;;;;;;5018339;28;20033;-77
2023/11/16 13:14:05;;;;;;;12.37;3.13;;;;;;;;;;5019489;28;20802;-74
2023/11/16 13:16:34;;;;;;;8.80;2.13;;;;;;;;;;5019323;28;20018;-76
2023/11/16 13:19:05;;;;;;;9.53;3.00;;;;;;;;;;5020303;28;20111;-77
2023/11/16 13:21:31;;;;;;;8.50;2.57;;;;;;;;;;5019973;28;20086;-74
2023/11/16 13:23:57;;;;;;;8.87;2.50;;;;;;;;;;5018488;28;20010;-76
2023/11/16 13:26:25;;;;;;;12.30;2.93;;;;;;;;;;5017912;28;20030;-76
2023/11/16 13:28:53;;;;;;;11.47;2.43;;;;;;;;;;5015942;28;20043;-78
2023/11/16 13:31:22;;;;;;;8.37;2.40;;;;;;;;;;5018973;28;20623;-77
2023/11/16 13:33:55;;;;;;;9.13;2.43;;;;;;;;;;5019851;28;20014;-76
2023/11/16 13:36:21;;;;;;;11.93;3.43;;;;;;;;;;5034739;28;20467;-77
2023/11/16 13:38:53;;;;;;;8.23;2.53;;;;;;;;;;5032101;28;20037;-77
2023/11/16 13:41:22;;;;;;;10.15;4.10;;;;;;;;;;5023037;28;20033;-76
2023/11/16 13:43:52;;;;;;;9.87;2.37;;;;;;;;;;5018830;28;20030;-76
2023/11/16 13:46:20;;;;;;;8.23;3.27;;;;;;;;;;5012096;28;20030;-75
2023/11/16 13:48:49;;;;;;;10.80;2.73;;;;;;;;;;5017370;28;20010;-77
2023/11/16 13:51:15;;;;;;;11.87;2.50;;;;;;;;;;5019687;28;20093;-76
2023/11/16 13:53:42;;;;;;;12.20;2.67;;;;;;;;;;5021232;28;20026;-76
2023/11/16 13:56:08;;;;;;;14.40;3.73;;;;;;;;;;5024279;28;20026;-77
2023/11/16 13:58:39;;;;;;;10.60;3.63;;;;;;;;;;5017968;28;20010;-76
2023/11/16 14:01:06;;;;;;;8.93;2.37;;;;;;;;;;5019097;28;20081;-76
2023/11/16 14:03:33;;;;;;;10.87;3.53;;;;;;;;;;5013440;28;20026;-79
2023/11/16 14:06:03;;;;;;;13.37;3.57;;;;;;;;;;5015434;28;20053;-77
2023/11/16 14:08:32;;;;;;;11.73;2.40;;;;;;;;;;5018549;28;20030;-75
2023/11/16 14:11:04;;;;;;;9.43;3.60;;;;;;;;;;5024324;28;20022;-77
2023/11/16 14:13:30;;;;;;;6.47;2.70;;;;;;;;;;5030887;28;20035;-76
2023/11/16 14:15:56;;;;;;;8.87;3.40;;;;;;;;;;5014304;28;20293;-75
2023/11/16 14:18:24;;;;;;;10.57;3.40;;;;;;;;;;5016603;28;20037;-76
2023/11/16 14:20:51;;;;;;;13.07;4.13;;;;;;;;;;5019854;28;20030;-76
2023/11/16 14:23:17;;;;;;;8.20;3.17;;;;;;;;;;5035742;28;20102;-79
2023/11/16 14:25:43;;;;;;;10.43;3.57;;;;;;;;;;5018426;28;20014;-77
2023/11/16 14:28:12;;;;;;;10.50;2.60;;;;;;;;;;5017285;28;20041;-76
2023/11/16 14:30:40;;;;;;;16.53;2.83;;;;;;;;;;5017078;28;20061;-76
2023/11/16 14:33:13;;;;;;;8.47;2.73;;;;;;;;;;5018281;28;20023;-76
2023/11/16 14:35:44;;;;;;;13.93;2.97;;;;;;;;;;5018321;28;20014;-77
2023/11/16 14:38:15;;;;;;;13.73;3.53;;;;;;;;;;5016311;28;20019;-77
2023/11/16 14:40:41;;;;;;;7.13;3.67;;;;;;;;;;5019560;28;20025;-78